METAR AND TAF INFORMATION
METAR FOR LFBC
ADDS - METARS form results

(0453 UTC 03 February 2023)
Data provider http://aviationweather.gov/metar/data/
 
METAR text: LFBC 030430Z AUTO 02002KT CAVOK M01/M01 Q1036
Conditions at: LFBC (CAZAUX POND (FAF, FR) observed 0430 UTC 03 February 2023
Temperature: -1.0°C (30°F)
Dewpoint: -1.0°C (30°F) [RH = 100%]
Pressure (altimeter): 30.59 inches Hg (1036.0 mb)
Winds: from the NNE (20 degrees) at 2 MPH (2 knots; 1.0 m/s)
Visibility: 6 or more miles (10+ km)
Ceiling: ceiling and visibility are OK
Clouds: unknown
Weather: no significant weather observed at this time

METAR text: LFBC 030400Z AUTO 01001KT CAVOK M01/M02 Q1036
Conditions at: LFBC (CAZAUX POND (FAF, FR) observed 0400 UTC 03 February 2023
Temperature: -1.0°C (30°F)
Dewpoint: -2.0°C (28°F) [RH = 93%]
Pressure (altimeter): 30.59 inches Hg (1036.0 mb)
Winds: from the N (10 degrees) at 1 MPH (1 knots; 0.5 m/s)
Visibility: 6 or more miles (10+ km)
Ceiling: ceiling and visibility are OK
Clouds: unknown
Weather: no significant weather observed at this time

 AIRPORT MAP

 RUNWAY INFORMATION
Runway 06 Runway length 7900 ft Runway width 148 ft
Runway elevation 74 ft Runway displaced threshold 0 ft Runway heading 57
Runway 24 Runway length 7900 ft Runway width 148 ft
Runway elevation 83 ft Runway displaced threshold 0 ft Runway heading 237

 AIRPORT FREQUENCIES
Type APP Name APP Frequency 142.45 MHZ
Type TWR Name TWR Frequency 118.4 MHZ

 AIRPORT NEAR NAVIGATION AIDS
Type TACAN Name Cazaux Frequency 110800 KHZ
Type NDB Name Cazaux Frequency 382 KHZ



Powered by Virtual Airlines Manager [v2.6.2]